Weather History for Erwin, NC

Change the Weather History Date:

Friday, April 12, 2013

  Actual Average Record
Temperature  
Mean Temperature 74 °F -  
Max Temperature 82 °F 74 °F 88 °F (1965)
Min Temperature 66 °F 43 °F 29 °F (1973)
Cooling Degree Days 9    
Growing Degree Days 24 (Base 50)    
Moisture  
Dew Point 63 °F    
Average Humidity 73    
Maximum Humidity 98    
Minimum Humidity 43    
Precipitation  
Precipitation 0.51 in - - ()
Sea Level Pressure  
Sea Level Pressure 29.74 in    
Wind  
Wind Speed 12 mph (SSW)    
Max Wind Speed 22 mph    
Max Gust Speed 29 mph    
Visibility 10 miles    
Events Rain    
Averages and records for this station are not official NWS values.
T = Trace of Precipitation, MM = Missing Value Source: NWS Daily Summary

Daily Weather History Graph

Daily Weather History Graph

Search for Another Location

Airport:

Trip Planner

Search our weather history database for the weather conditions in past years. The results will help you decide how hot, cold, wet, or windy it might be!

Date:

Astronomy

Apr. 12, 2013 Rise Set
Actual Time 6:46 AM EDT 7:45 PM EDT
Civil Twilight 6:20 AM EDT 8:11 PM EDT
Nautical Twilight 5:49 AM EDT 8:42 PM EDT
Astronomical Twilight 5:17 AM EDT 9:14 PM EDT
Moon 7:59 AM EDT (4/12) 10:09 PM EDT (4/12)
Length of Visible Light 13h 51m
Length of Day
12h 59m
Waxing Crescent, 5% of the Moon is Illuminated
Apr 12
Waxing Crescent
Apr 18
First Quarter
Apr 25
Full
May 2
Last Quarter
May 9
New

Hourly Weather History & Observations

Time (EDT) Temp. Heat Index Dew Point Humidity Pressure Visibility Wind Dir Wind Speed Gust Speed Precip Events Conditions
12:15 AM 71.6 °F - 64.6 °F 78% 29.84 in 10.0 mi South 11.5 mph - N/A   Overcast
12:35 AM 71.6 °F - 64.8 °F 79% 29.84 in 10.0 mi South 13.8 mph - N/A   Overcast
12:55 AM 71.8 °F - 64.8 °F 78% 29.84 in 10.0 mi South 13.8 mph - N/A   Overcast
1:15 AM 71.6 °F - 64.9 °F 79% 29.84 in 10.0 mi South 13.8 mph - N/A   Overcast
1:35 AM 71.6 °F - 64.9 °F 79% 29.83 in 10.0 mi South 10.4 mph 16.1 mph N/A   Overcast
1:55 AM 71.6 °F - 64.9 °F 79% 29.81 in 10.0 mi South 12.7 mph 19.6 mph N/A   Overcast
2:15 AM 71.6 °F - 64.9 °F 79% 29.82 in 10.0 mi South 16.1 mph - N/A   Overcast
2:35 AM 71.6 °F - 64.6 °F 78% 29.81 in 10.0 mi South 12.7 mph - N/A   Overcast
2:55 AM 71.6 °F - 63.9 °F 76% 29.80 in 10.0 mi South 13.8 mph 19.6 mph N/A   Overcast
3:15 AM 71.6 °F - 63.5 °F 76% 29.79 in 10.0 mi South 13.8 mph 19.6 mph N/A   Overcast
3:35 AM 71.6 °F - 63.5 °F 76% 29.78 in 10.0 mi South 15.0 mph 19.6 mph N/A   Overcast
3:55 AM 71.6 °F - 63.1 °F 75% 29.78 in 10.0 mi South 15.0 mph 21.9 mph N/A   Overcast
4:15 AM 71.6 °F - 62.8 °F 74% 29.76 in 10.0 mi SSE 15.0 mph 25.3 mph N/A   Overcast
4:35 AM 71.6 °F - 62.6 °F 73% 29.77 in 10.0 mi South 16.1 mph 25.3 mph N/A   Overcast
4:55 AM 71.6 °F - 62.6 °F 73% 29.77 in 10.0 mi South 16.1 mph 24.2 mph N/A   Overcast
5:15 AM 71.2 °F - 62.8 °F 75% 29.78 in 10.0 mi South 16.1 mph 19.6 mph N/A   Overcast
5:35 AM 68.0 °F - 65.7 °F 92% 29.77 in 3.0 mi South 17.3 mph - 0.02 in Rain Rain
5:55 AM 68.0 °F - 66.2 °F 94% 29.76 in 10.0 mi South 17.3 mph 26.5 mph 0.05 in Rain Light Rain
6:15 AM 67.5 °F - 66.2 °F 96% 29.75 in 10.0 mi SSE 12.7 mph 21.9 mph 0.02 in Rain Light Rain
6:35 AM 67.6 °F - 66.4 °F 96% 29.77 in 7.0 mi South 15.0 mph 19.6 mph 0.03 in Rain Heavy Rain
6:55 AM 67.1 °F - 66.2 °F 97% 29.77 in 7.0 mi South 11.5 mph 18.4 mph 0.04 in Rain Light Rain
7:15 AM 66.7 °F - 66.2 °F 98% 29.76 in 7.0 mi South 10.4 mph - 0.02 in Rain Light Rain
7:35 AM 67.1 °F - 66.4 °F 98% 29.77 in 10.0 mi SSW 8.1 mph - 0.04 in   Overcast
7:55 AM 67.3 °F - 66.7 °F 98% 29.78 in 10.0 mi WSW 6.9 mph 17.3 mph 0.07 in   Overcast
8:15 AM 67.3 °F - 66.7 °F 98% 29.78 in 10.0 mi South 11.5 mph - 0.03 in   Overcast
8:35 AM 68.2 °F - 67.5 °F 98% 29.77 in 10.0 mi South 10.4 mph - 0.06 in   Overcast
8:55 AM 68.4 °F - 67.6 °F 98% 29.77 in 10.0 mi South 11.5 mph - 0.09 in   Overcast
9:15 AM 68.9 °F - 68.0 °F 97% 29.76 in 10.0 mi South 12.7 mph 19.6 mph 0.03 in   Overcast
9:35 AM 69.3 °F - 68.5 °F 98% 29.76 in 10.0 mi South 10.4 mph - 0.05 in   Overcast
9:55 AM 69.8 °F - 68.2 °F 95% 29.76 in 10.0 mi South 11.5 mph - 0.08 in   Overcast
10:15 AM 69.8 °F - 68.5 °F 96% 29.76 in 10.0 mi South 11.5 mph - 0.02 in   Overcast
10:35 AM 72.0 °F - 69.4 °F 92% 29.75 in 10.0 mi South 10.4 mph - 0.04 in   Overcast
10:55 AM 72.9 °F - 68.5 °F 86% 29.75 in 10.0 mi South 13.8 mph 19.6 mph 0.05 in   Overcast
11:15 AM 75.0 °F - 67.3 °F 77% 29.75 in 10.0 mi South 11.5 mph 18.4 mph 0.02 in   Overcast
11:35 AM 76.5 °F - 66.6 °F 71% 29.74 in 10.0 mi SSW 12.7 mph - 0.03 in   Overcast
11:55 AM 77.2 °F - 66.2 °F 69% 29.74 in 10.0 mi SSW 17.3 mph 23.0 mph 0.04 in   Overcast
12:15 PM 78.3 °F - 65.5 °F 65% 29.74 in 10.0 mi SSW 13.8 mph 25.3 mph 0.01 in   Mostly Cloudy
12:35 PM 79.7 °F - 65.1 °F 61% 29.72 in 10.0 mi SSW 16.1 mph 20.7 mph 0.02 in   Mostly Cloudy
12:55 PM 79.3 °F - 63.5 °F 58% 29.72 in 10.0 mi SW 15.0 mph 21.9 mph 0.03 in   Mostly Cloudy
1:15 PM 82.0 °F 83.4 °F 63.7 °F 54% 29.70 in 10.0 mi SSW 21.9 mph 28.8 mph N/A   Mostly Cloudy
1:35 PM 76.5 °F - 62.4 °F 62% 29.71 in 10.0 mi WNW 11.5 mph 24.2 mph N/A   Mostly Cloudy
1:55 PM 72.1 °F - 62.1 °F 70% 29.71 in 10.0 mi West 6.9 mph - N/A   Overcast
2:15 PM 73.4 °F - 62.1 °F 68% 29.72 in 10.0 mi WSW 11.5 mph 17.3 mph N/A Rain Light Rain
2:35 PM 69.6 °F - 67.3 °F 92% 29.72 in 10.0 mi SW 6.9 mph - 0.01 in Rain Light Rain
2:55 PM 71.8 °F - 66.9 °F 85% 29.70 in 10.0 mi SW 5.8 mph - 0.01 in   Mostly Cloudy
3:15 PM 73.4 °F - 67.5 °F 82% 29.69 in 10.0 mi SSW 5.8 mph - 0.01 in   Scattered Clouds
3:35 PM 74.1 °F - 66.9 °F 78% 29.67 in 10.0 mi SSW 4.6 mph - 0.01 in   Overcast
3:55 PM 75.7 °F - 66.9 °F 74% 29.66 in 10.0 mi WSW 5.8 mph - 0.02 in   Scattered Clouds
4:15 PM 77.9 °F - 66.0 °F 67% 29.65 in 10.0 mi SSW 6.9 mph - N/A   Scattered Clouds
4:35 PM 79.9 °F - 65.8 °F 62% 29.65 in 10.0 mi SW 5.8 mph - 0.01 in   Mostly Cloudy
4:55 PM 79.7 °F - 64.4 °F 59% 29.66 in 10.0 mi SW 16.1 mph - 0.01 in   Mostly Cloudy
5:15 PM 81.0 °F 82.1 °F 62.2 °F 53% 29.66 in 10.0 mi SW 11.5 mph 18.4 mph N/A   Mostly Cloudy
5:35 PM 81.3 °F 82.2 °F 61.5 °F 51% 29.65 in 10.0 mi SW 12.7 mph 20.7 mph 0.01 in   Overcast
5:55 PM 81.1 °F 81.9 °F 60.6 °F 50% 29.64 in 10.0 mi SW 15.0 mph 20.7 mph 0.01 in   Overcast
6:15 PM 81.1 °F 81.5 °F 59.2 °F 47% 29.64 in 10.0 mi SW 13.8 mph - N/A   Overcast
6:35 PM 80.6 °F 81.0 °F 58.5 °F 47% 29.65 in 10.0 mi SSW 10.4 mph - N/A   Overcast
6:55 PM 80.1 °F 80.3 °F 56.5 °F 44% 29.66 in 10.0 mi SW 10.4 mph 16.1 mph N/A   Overcast
7:15 PM 79.2 °F - 55.6 °F 44% 29.66 in 10.0 mi SSW 9.2 mph - N/A   Overcast
7:35 PM 78.3 °F - 54.3 °F 43% 29.67 in 10.0 mi SSW 12.7 mph 17.3 mph N/A   Overcast
7:55 PM 76.8 °F - 54.5 °F 46% 29.67 in 10.0 mi SSW 6.9 mph - 0.01 in   Scattered Clouds
8:15 PM 75.6 °F - 54.9 °F 48% 29.68 in 10.0 mi SSW 5.8 mph - N/A   Clear
8:35 PM 74.3 °F - 55.8 °F 52% 29.69 in 10.0 mi SW 5.8 mph - N/A   Clear
8:55 PM 73.4 °F - 57.2 °F 57% 29.69 in 10.0 mi SSW 6.9 mph - N/A   Clear
9:15 PM 73.2 °F - 57.4 °F 57% 29.70 in 10.0 mi SSW 6.9 mph - N/A   Clear
9:35 PM 72.0 °F - 57.7 °F 61% 29.71 in 10.0 mi SSW 6.9 mph - N/A   Clear
9:55 PM 70.0 °F - 58.5 °F 67% 29.71 in 10.0 mi SSW 6.9 mph - N/A   Clear
10:15 PM 68.7 °F - 58.5 °F 70% 29.72 in 10.0 mi SSW 5.8 mph - N/A   Clear
10:35 PM 67.5 °F - 58.5 °F 73% 29.73 in 10.0 mi South 5.8 mph - N/A   Clear
10:55 PM 67.5 °F - 57.9 °F 71% 29.74 in 10.0 mi Calm Calm - N/A   Clear
11:15 PM 68.4 °F - 55.9 °F 64% 29.75 in 10.0 mi SW 3.5 mph - N/A   Clear
11:35 PM 68.0 °F - 53.2 °F 59% 29.76 in 10.0 mi SW 5.8 mph - N/A   Clear
11:55 PM 67.1 °F - 51.1 °F 56% 29.76 in 10.0 mi SW 5.8 mph - N/A   Clear